createdAt,value
2018-01-17T00:02:06.657Z,52.13
2018-01-17T00:04:34.384Z,55.20
2018-01-17T00:07:02.233Z,53.83
2018-01-17T00:09:29.951Z,50.10
2018-01-17T00:11:57.737Z,51.33
2018-01-17T00:14:25.563Z,54.47
2018-01-17T00:16:54.141Z,54.23
2018-01-17T00:19:21.946Z,61.10
2018-01-17T00:21:49.735Z,52.80
2018-01-17T00:24:17.527Z,51.47
2018-01-17T00:26:45.330Z,53.97
2018-01-17T00:29:13.119Z,52.83
2018-01-17T00:31:40.866Z,55.00
2018-01-17T00:34:08.603Z,49.47
2018-01-17T00:36:37.144Z,47.70
2018-01-17T00:39:04.992Z,44.63
2018-01-17T00:41:32.798Z,48.43
2018-01-17T00:44:00.548Z,47.87
2018-01-17T00:46:28.373Z,44.40
2018-01-17T00:48:56.106Z,46.00
2018-01-17T00:51:23.930Z,44.20
2018-01-17T00:53:51.705Z,52.43
2018-01-17T00:56:19.431Z,53.47
2018-01-17T00:58:48.035Z,52.87
2018-01-17T01:01:15.769Z,48.93
2018-01-17T01:03:43.564Z,56.07
2018-01-17T01:06:11.383Z,54.87
2018-01-17T01:08:39.129Z,55.83
2018-01-17T01:11:06.902Z,50.27
2018-01-17T01:13:34.664Z,49.67
2018-01-17T01:16:02.410Z,51.50
2018-01-17T01:18:30.168Z,54.23
2018-01-17T01:20:57.984Z,59.00
2018-01-17T01:23:25.739Z,55.30
2018-01-17T01:25:53.545Z,53.90
2018-01-17T01:28:22.068Z,56.00
2018-01-17T01:30:49.792Z,58.23
2018-01-17T01:33:17.568Z,60.10
2018-01-17T01:35:45.372Z,61.03
2018-01-17T01:38:13.151Z,57.13
2018-01-17T01:40:40.858Z,60.37
2018-01-17T01:43:09.441Z,52.80
2018-01-17T01:45:38.014Z,56.87
2018-01-17T01:48:05.761Z,57.37
2018-01-17T01:50:33.565Z,57.73
2018-01-17T01:53:01.296Z,54.07
2018-01-17T01:55:29.042Z,61.97
2018-01-17T01:57:56.787Z,57.97
2018-01-17T02:00:24.592Z,65.87
2018-01-17T02:02:52.341Z,63.00
2018-01-17T02:05:20.072Z,62.10
2018-01-17T02:07:48.700Z,61.23
2018-01-17T02:10:16.470Z,63.90
2018-01-17T02:12:44.252Z,63.03
2018-01-17T02:15:12.119Z,61.67
2018-01-17T02:17:39.927Z,59.13
2018-01-17T02:20:07.674Z,54.90
2018-01-17T02:22:35.468Z,58.50
2018-01-17T02:25:03.227Z,62.07
2018-01-17T02:27:30.993Z,56.70
2018-01-17T02:29:58.797Z,66.20
2018-01-17T02:32:26.615Z,62.27
2018-01-17T02:34:55.173Z,68.00
2018-01-17T02:37:22.917Z,62.97
2018-01-17T02:40:02.365Z,67.83
2018-01-17T02:42:30.126Z,64.70
2018-01-17T02:44:58.936Z,65.57
2018-01-17T02:47:26.678Z,62.30
2018-01-17T02:49:54.437Z,65.60
2018-01-17T02:52:22.228Z,59.97
2018-01-17T02:54:49.996Z,64.27
2018-01-17T02:57:17.740Z,68.17
2018-01-17T02:59:45.502Z,62.80
2018-01-17T03:02:13.277Z,59.57
2018-01-17T03:04:41.019Z,69.77
2018-01-17T03:07:08.826Z,62.47
2018-01-17T03:09:36.682Z,65.23
2018-01-17T03:12:04.526Z,68.40
2018-01-17T03:14:32.324Z,60.53
2018-01-17T03:17:00.093Z,65.37
2018-01-17T03:19:27.827Z,69.83
2018-01-17T03:21:55.636Z,70.33
2018-01-17T03:24:23.463Z,67.37
2018-01-17T03:26:51.276Z,66.17
2018-01-17T03:29:19.111Z,62.73
2018-01-17T03:31:46.945Z,64.60
2018-01-17T03:34:14.693Z,64.30
2018-01-17T03:36:42.432Z,72.03
2018-01-17T03:39:10.198Z,60.93
2018-01-17T03:41:37.992Z,67.63
2018-01-17T03:44:05.741Z,64.83
2018-01-17T03:46:33.545Z,65.33
2018-01-17T03:49:01.301Z,63.30
2018-01-17T03:51:29.107Z,66.20
2018-01-17T03:53:56.863Z,65.70
2018-01-17T03:56:24.603Z,70.10
2018-01-17T03:58:52.396Z,64.73
2018-01-17T04:01:20.160Z,79.43
2018-01-17T04:03:47.884Z,73.43
2018-01-17T04:06:15.659Z,69.87
2018-01-17T04:08:43.410Z,75.30
2018-01-17T04:11:11.213Z,73.30
2018-01-17T04:13:38.941Z,64.77
2018-01-17T04:16:06.788Z,62.23
2018-01-17T04:18:34.512Z,73.33
2018-01-17T04:21:02.314Z,68.80
2018-01-17T04:23:30.150Z,70.83
2018-01-17T04:25:57.960Z,67.20
2018-01-17T04:28:25.762Z,73.57
2018-01-17T04:30:53.536Z,68.40
2018-01-17T04:33:21.351Z,78.63
2018-01-17T04:35:49.124Z,77.00
2018-01-17T04:38:16.919Z,84.73
2018-01-17T04:40:44.713Z,84.20
2018-01-17T04:43:12.514Z,82.60
2018-01-17T04:45:40.428Z,76.90
2018-01-17T04:48:08.234Z,83.13
2018-01-17T04:50:36.832Z,78.77
2018-01-17T04:53:04.554Z,87.97
2018-01-17T04:55:32.311Z,98.17
2018-01-17T04:58:00.078Z,84.27
2018-01-17T05:00:27.840Z,79.77
2018-01-17T05:02:55.583Z,79.17
2018-01-17T05:05:23.325Z,77.87
2018-01-17T05:07:51.139Z,92.03
2018-01-17T05:10:18.976Z,78.60
2018-01-17T05:12:46.785Z,79.67
2018-01-17T05:15:14.545Z,87.77
2018-01-17T05:17:42.397Z,84.73
2018-01-17T05:20:10.176Z,86.57
2018-01-17T05:22:37.969Z,75.10
2018-01-17T05:25:05.771Z,81.30
2018-01-17T05:27:33.609Z,72.27
2018-01-17T05:30:01.381Z,85.87
2018-01-17T05:32:29.287Z,79.40
2018-01-17T05:35:11.314Z,72.07
2018-01-17T05:37:44.431Z,75.70
2018-01-17T05:40:12.301Z,73.80
2018-01-17T05:42:40.168Z,73.50
2018-01-17T05:45:08.145Z,76.77
2018-01-17T05:47:36.013Z,79.60
2018-01-17T05:50:07.238Z,71.50
2018-01-17T05:52:35.287Z,71.17
2018-01-17T05:55:03.298Z,70.43
2018-01-17T05:57:31.156Z,81.53
2018-01-17T05:59:59.342Z,67.40
2018-01-17T06:02:27.409Z,71.60
2018-01-17T06:04:55.269Z,71.37
2018-01-17T06:07:23.238Z,71.13
2018-01-17T06:09:51.321Z,67.07
2018-01-17T06:12:19.378Z,77.27
2018-01-17T06:14:47.456Z,70.57
2018-01-17T06:17:15.425Z,67.97
2018-01-17T06:19:43.282Z,64.00
2018-01-17T06:22:11.267Z,63.87
2018-01-17T06:24:39.230Z,71.43
2018-01-17T06:27:07.086Z,63.10
2018-01-17T06:29:34.955Z,69.43
2018-01-17T06:32:04.486Z,65.93
2018-01-17T06:34:32.541Z,61.77
2018-01-17T06:37:00.616Z,58.00
2018-01-17T06:39:28.791Z,55.70
2018-01-17T06:41:56.879Z,55.03
2018-01-17T06:44:24.749Z,55.60
2018-01-17T06:46:52.598Z,56.77
2018-01-17T06:49:20.566Z,65.87
2018-01-17T06:51:48.542Z,63.90
2018-01-17T06:54:16.618Z,59.20
2018-01-17T06:56:44.582Z,58.10
2018-01-17T06:59:12.446Z,60.70
2018-01-17T07:01:40.307Z,60.97
2018-01-17T07:04:08.183Z,55.60
2018-01-17T07:06:36.039Z,59.30
2018-01-17T07:09:04.119Z,56.20
2018-01-17T07:11:31.977Z,54.57
2018-01-17T07:13:59.851Z,55.30
2018-01-17T07:16:27.823Z,55.30
2018-01-17T07:18:55.678Z,51.20
2018-01-17T07:21:25.410Z,52.63
2018-01-17T07:23:53.255Z,47.67
2018-01-17T07:26:21.075Z,51.17
2018-01-17T07:28:49.304Z,58.67
2018-01-17T07:31:17.172Z,47.30
2018-01-17T07:33:45.854Z,53.63
2018-01-17T07:36:14.222Z,58.43
2018-01-17T07:38:42.687Z,41.90
2018-01-17T07:41:10.925Z,44.97
2018-01-17T07:43:39.565Z,51.23
2018-01-17T07:46:07.435Z,54.43
2018-01-17T07:48:35.311Z,46.00
2018-01-17T07:51:03.275Z,52.10
2018-01-17T07:53:31.144Z,51.87
2018-01-17T07:55:59.359Z,52.23
2018-01-17T07:58:28.165Z,55.87
2018-01-17T08:00:56.589Z,55.40
2018-01-17T08:03:25.530Z,56.00
2018-01-17T08:05:53.437Z,54.27
2018-01-17T08:08:21.312Z,64.60
2018-01-17T08:10:49.429Z,50.77
2018-01-17T08:13:26.359Z,54.47
2018-01-17T08:15:54.220Z,55.50
2018-01-17T08:18:22.119Z,59.63
2018-01-17T08:20:50.158Z,50.30
2018-01-17T08:23:18.369Z,53.20
2018-01-17T08:25:47.638Z,46.00
2018-01-17T08:28:16.072Z,50.10
2018-01-17T08:30:44.092Z,46.37
2018-01-17T08:33:12.163Z,47.13
2018-01-17T08:35:40.130Z,42.20
2018-01-17T08:38:07.987Z,53.97
2018-01-17T08:40:35.862Z,44.27
2018-01-17T08:43:03.737Z,50.20
2018-01-17T08:45:32.407Z,55.57
2018-01-17T08:48:02.629Z,62.60
2018-01-17T08:50:30.606Z,62.20
2018-01-17T08:52:59.393Z,59.33
2018-01-17T08:55:27.968Z,61.47
2018-01-17T08:57:56.051Z,72.53
2018-01-17T09:00:23.908Z,67.07
2018-01-17T09:02:51.781Z,69.00
2018-01-17T09:05:19.641Z,68.17
2018-01-17T09:07:47.616Z,56.53
2018-01-17T09:10:15.486Z,66.27
2018-01-17T09:12:43.452Z,66.37
2018-01-17T09:15:11.307Z,63.30
2018-01-17T09:17:39.182Z,65.80
2018-01-17T09:20:07.150Z,69.63
2018-01-17T09:22:35.012Z,67.50
2018-01-17T09:25:02.990Z,62.37
2018-01-17T09:27:30.958Z,60.97
2018-01-17T09:29:58.816Z,62.40
2018-01-17T09:32:26.688Z,57.73
2018-01-17T09:34:54.558Z,59.00
2018-01-17T09:37:22.415Z,68.03
2018-01-17T09:39:50.291Z,69.43
2018-01-17T09:42:18.146Z,55.50
2018-01-17T09:44:46.023Z,61.00
2018-01-17T09:47:13.991Z,74.40
2018-01-17T09:49:41.859Z,62.70
2018-01-17T09:52:09.715Z,70.57
2018-01-17T09:54:37.591Z,61.47
2018-01-17T09:57:05.550Z,71.90
2018-01-17T09:59:33.425Z,68.80
2018-01-17T10:02:01.296Z,67.10
2018-01-17T10:04:29.164Z,74.83
2018-01-17T10:06:57.125Z,72.20
2018-01-17T10:09:24.984Z,71.23
2018-01-17T10:11:52.862Z,75.37
2018-01-17T10:14:20.719Z,77.83
2018-01-17T10:16:48.585Z,80.60
2018-01-17T10:19:16.450Z,76.30
2018-01-17T10:21:44.318Z,70.90
2018-01-17T10:24:12.196Z,74.90
2018-01-17T10:26:40.054Z,73.33
2018-01-17T10:29:07.916Z,79.60
2018-01-17T10:31:35.895Z,67.50
2018-01-17T10:34:03.853Z,62.20
2018-01-17T10:36:31.729Z,72.50
2018-01-17T10:38:59.586Z,71.10
2018-01-17T10:41:27.406Z,61.33
2018-01-17T10:43:55.327Z,70.13
2018-01-17T10:46:23.185Z,75.93
2018-01-17T10:48:51.163Z,64.47
2018-01-17T10:51:19.025Z,64.40
2018-01-17T10:53:46.899Z,56.57
2018-01-17T10:56:14.764Z,57.20
2018-01-17T10:58:42.629Z,61.87
2018-01-17T11:01:10.494Z,57.40
2018-01-17T11:03:38.352Z,54.97
2018-01-17T11:06:06.330Z,53.37
2018-01-17T11:08:34.196Z,55.00
2018-01-17T11:11:02.064Z,58.47
2018-01-17T11:13:30.751Z,50.60
2018-01-17T11:15:58.823Z,52.80
2018-01-17T11:18:27.506Z,51.43
2018-01-17T11:20:55.366Z,45.03
2018-01-17T11:23:23.240Z,46.80
2018-01-17T11:25:51.102Z,49.17
2018-01-17T11:28:18.965Z,38.83
2018-01-17T11:30:46.942Z,38.07
2018-01-17T11:33:14.910Z,35.80
2018-01-17T11:35:42.767Z,35.30
2018-01-17T11:38:10.749Z,35.87
2018-01-17T11:40:38.636Z,25.23
2018-01-17T11:43:07.296Z,21.87
2018-01-17T11:45:35.165Z,18.57
2018-01-17T11:48:03.135Z,21.20
2018-01-17T11:50:30.990Z,19.10
2018-01-17T11:52:58.966Z,14.33
2018-01-17T11:55:26.835Z,14.47
2018-01-17T11:57:54.699Z,10.57
2018-01-17T12:00:22.671Z,7.53
2018-01-17T12:02:50.534Z,8.93
2018-01-17T12:05:18.392Z,15.67
2018-01-17T12:07:46.370Z,5.13
2018-01-17T12:10:14.237Z,5.87
2018-01-17T12:12:42.105Z,6.90
2018-01-17T12:15:09.966Z,4.47
2018-01-17T12:17:37.840Z,7.57
2018-01-17T12:20:07.136Z,8.97
2018-01-17T12:22:35.709Z,11.67
2018-01-17T12:25:03.794Z,6.57
2018-01-17T12:27:31.758Z,21.50
2018-01-17T12:29:59.724Z,16.83
2018-01-17T12:32:27.586Z,5.43
2018-01-17T12:34:55.565Z,19.23
2018-01-17T12:37:24.248Z,4.30
2018-01-17T12:39:52.927Z,24.30
2018-01-17T12:42:20.906Z,68.27
2018-01-17T12:44:48.872Z,31.13
2018-01-17T12:47:16.731Z,48.17
2018-01-17T12:49:44.598Z,39.77
2018-01-17T12:52:12.462Z,13.57
2018-01-17T12:54:40.339Z,7.03
2018-01-17T12:57:08.206Z,10.77
2018-01-17T12:59:36.177Z,11.90
2018-01-17T13:02:04.855Z,8.60
2018-01-17T13:04:32.820Z,3.87
2018-01-17T13:07:01.511Z,11.13
2018-01-17T13:09:29.380Z,1.30
2018-01-17T13:11:58.068Z,12.97
2018-01-17T13:14:26.034Z,3.10
2018-01-17T13:16:54.719Z,6.30
2018-01-17T13:19:22.588Z,7.90
2018-01-17T13:21:50.555Z,13.30
2018-01-17T13:24:18.416Z,11.83
2018-01-17T13:26:46.392Z,3.40
2018-01-17T13:29:14.250Z,8.70
2018-01-17T13:31:42.114Z,6.30
2018-01-17T13:34:09.988Z,5.23
2018-01-17T13:36:38.770Z,11.30
2018-01-17T13:39:06.637Z,8.87
2018-01-17T13:41:34.502Z,5.50
2018-01-17T13:44:03.534Z,18.53
2018-01-17T13:46:33.038Z,7.93
2018-01-17T13:49:00.927Z,1.70
2018-01-17T13:51:29.605Z,3.47
2018-01-17T13:53:59.471Z,1.50
2018-01-17T13:56:27.383Z,6.03
2018-01-17T13:58:57.344Z,6.83
2018-01-17T14:01:25.405Z,4.50
2018-01-17T14:03:56.024Z,7.93
2018-01-17T14:06:24.075Z,6.73
2018-01-17T14:08:53.901Z,3.17
2018-01-17T14:11:22.238Z,3.20
2018-01-17T14:13:50.239Z,10.63
2018-01-17T14:16:18.832Z,7.07
2018-01-17T14:18:46.991Z,8.43
2018-01-17T14:21:15.668Z,9.50
2018-01-17T14:23:44.350Z,10.33
2018-01-17T14:26:12.333Z,6.33
2018-01-17T14:28:40.292Z,21.57
2018-01-17T14:31:08.363Z,6.73
2018-01-17T14:33:36.230Z,6.23
2018-01-17T14:36:04.917Z,2.87
2018-01-17T14:38:32.895Z,2.33
2018-01-17T14:41:00.754Z,10.93
2018-01-17T14:43:28.730Z,3.57
2018-01-17T14:45:57.414Z,1.40
2018-01-17T14:48:25.381Z,1.30
2018-01-17T14:50:53.350Z,2.03
2018-01-17T14:53:21.208Z,4.03
2018-01-17T14:55:49.083Z,5.47
2018-01-17T14:58:16.948Z,6.57
2018-01-17T15:00:44.808Z,3.13
2018-01-17T15:03:12.888Z,0.97
2018-01-17T15:05:40.959Z,1.20
2018-01-17T15:08:08.818Z,2.87
2018-01-17T15:10:37.716Z,2.00
2018-01-17T15:13:06.392Z,1.60
2018-01-17T15:15:34.266Z,5.70
2018-01-17T15:18:02.225Z,5.13
2018-01-17T15:20:30.099Z,4.83
2018-01-17T15:22:57.961Z,5.87
2018-01-17T15:25:26.042Z,3.33
2018-01-17T15:27:54.719Z,2.37
2018-01-17T15:30:22.736Z,1.67
2018-01-17T15:32:51.313Z,3.30
2018-01-17T15:35:19.176Z,1.10
2018-01-17T15:37:47.153Z,4.30
2018-01-17T15:40:15.936Z,0.80
2018-01-17T15:42:43.911Z,2.30
2018-01-17T15:45:12.595Z,4.20
2018-01-17T15:47:41.271Z,2.50
2018-01-17T15:50:09.140Z,6.40
2018-01-17T15:52:39.012Z,3.33
2018-01-17T15:55:07.236Z,2.80
2018-01-17T15:57:36.404Z,1.67
2018-01-17T16:00:04.300Z,8.07
2018-01-17T16:02:32.205Z,4.47
2018-01-17T16:05:00.855Z,2.53
2018-01-17T16:07:28.726Z,1.70
2018-01-17T16:09:57.401Z,1.27
2018-01-17T16:12:25.266Z,3.87
2018-01-17T16:14:53.953Z,4.13
2018-01-17T16:17:21.826Z,3.80
2018-01-17T16:19:49.693Z,5.20
2018-01-17T16:22:17.550Z,3.70
2018-01-17T16:24:45.418Z,2.97
2018-01-17T16:27:13.287Z,3.30
2018-01-17T16:29:41.153Z,10.40
2018-01-17T16:32:09.014Z,3.90
2018-01-17T16:34:36.880Z,5.17
2018-01-17T16:39:24.627Z,2.90
2018-01-17T16:41:52.494Z,2.03
2018-01-17T16:44:20.368Z,5.37
2018-01-17T16:46:48.233Z,2.87
2018-01-17T16:49:16.102Z,3.00
2018-01-17T16:51:43.958Z,5.80
2018-01-17T16:54:11.937Z,2.60
2018-01-17T16:56:39.908Z,8.43
2018-01-17T16:59:07.871Z,2.67
2018-01-17T17:01:36.046Z,3.10
2018-01-17T17:04:05.371Z,4.90
2018-01-17T17:06:36.438Z,4.10
2018-01-17T17:09:04.636Z,3.83
2018-01-17T17:11:33.900Z,4.60
2018-01-17T17:14:03.432Z,5.77
2018-01-17T17:16:32.361Z,3.67
2018-01-17T17:19:01.571Z,11.30
2018-01-17T17:21:30.612Z,5.00
2018-01-17T17:23:59.275Z,5.70
2018-01-17T17:26:28.029Z,3.37
2018-01-17T17:28:57.613Z,4.53
2018-01-17T17:31:25.724Z,4.87
2018-01-17T17:33:53.581Z,4.23
2018-01-17T17:36:21.557Z,2.53
2018-01-17T17:38:49.417Z,6.73
2018-01-17T17:41:17.293Z,3.90
2018-01-17T17:43:45.147Z,4.80
2018-01-17T17:46:13.122Z,3.60
2018-01-17T17:48:41.803Z,2.53
2018-01-17T17:51:09.777Z,3.47
2018-01-17T17:53:38.157Z,6.15
2018-01-17T17:56:06.126Z,4.10
2018-01-17T17:58:35.424Z,2.07
2018-01-17T18:01:03.500Z,3.13
2018-01-17T18:03:31.628Z,1.83
2018-01-17T18:09:14.121Z,1.90
2018-01-17T18:11:45.866Z,4.10
2018-01-17T18:14:13.740Z,2.50
2018-01-17T18:16:41.598Z,5.33
2018-01-17T18:19:10.183Z,1.70
2018-01-17T18:21:38.150Z,1.67
2018-01-17T18:24:08.315Z,2.77
2018-01-17T18:26:37.887Z,2.40
2018-01-17T18:29:05.743Z,3.33
2018-01-17T18:31:34.537Z,1.47
2018-01-17T18:34:16.236Z,5.50
2018-01-17T18:36:45.688Z,3.13
2018-01-17T18:39:13.583Z,4.27
2018-01-17T18:41:41.459Z,8.00
2018-01-17T18:44:09.331Z,3.70
2018-01-17T18:46:38.543Z,2.83
2018-01-17T18:49:07.208Z,2.83
2018-01-17T18:51:35.381Z,3.60
2018-01-17T18:54:03.989Z,2.60
2018-01-17T18:56:32.854Z,1.70
2018-01-17T18:59:00.981Z,3.37
2018-01-17T19:01:28.966Z,6.07
2018-01-17T19:04:00.574Z,4.10
2018-01-17T19:09:45.076Z,3.70
2018-01-17T19:12:19.805Z,5.47
2018-01-17T19:14:48.546Z,9.23
2018-01-17T19:17:19.830Z,3.50
2018-01-17T19:19:48.573Z,4.50
2018-01-17T19:22:22.052Z,3.10
2018-01-17T19:24:49.952Z,3.60
2018-01-17T19:27:18.626Z,3.03
2018-01-17T19:29:46.706Z,9.40
2018-01-17T19:32:14.775Z,8.20
2018-01-17T19:34:42.632Z,2.93
2018-01-17T19:37:10.500Z,3.10
2018-01-17T19:39:38.377Z,5.00
2018-01-17T19:42:06.344Z,3.07
2018-01-17T19:44:35.180Z,4.33
2018-01-17T19:47:03.101Z,4.87
2018-01-17T19:49:30.960Z,2.73
2018-01-17T19:51:58.827Z,2.73
2018-01-17T19:54:26.703Z,3.53
2018-01-17T19:56:56.620Z,2.30
2018-01-17T19:59:27.324Z,2.93
2018-01-17T20:01:55.418Z,3.80
2018-01-17T20:04:23.287Z,2.30
2018-01-17T20:06:51.252Z,2.70
2018-01-17T20:09:19.111Z,2.90
2018-01-17T20:11:49.010Z,2.63
2018-01-17T20:14:18.999Z,7.60
2018-01-17T20:16:47.787Z,5.70
2018-01-17T20:19:15.696Z,2.93
2018-01-17T20:21:45.454Z,1.97
2018-01-17T20:24:14.197Z,2.40
2018-01-17T20:26:43.486Z,2.80
2018-01-17T20:29:12.177Z,3.50
2018-01-17T20:31:40.216Z,2.63
2018-01-17T20:34:08.832Z,3.40
2018-01-17T20:36:36.657Z,2.53
2018-01-17T20:39:07.253Z,4.03
2018-01-17T20:41:36.550Z,2.60
2018-01-17T20:44:06.944Z,2.30
2018-01-17T20:46:36.476Z,1.57
2018-01-17T20:49:05.987Z,2.43
2018-01-17T20:51:35.276Z,2.00
2018-01-17T20:54:05.332Z,2.00
2018-01-17T20:56:33.357Z,1.90
2018-01-17T20:59:02.363Z,3.80
2018-01-17T21:01:31.108Z,2.80
2018-01-17T21:03:59.012Z,11.40
2018-01-17T21:06:26.875Z,2.30
2018-01-17T21:08:54.702Z,2.37
2018-01-17T21:11:22.602Z,3.13
2018-01-17T21:13:51.673Z,1.70
2018-01-17T21:16:19.573Z,2.70
2018-01-17T21:18:47.532Z,2.30
2018-01-17T21:21:16.194Z,2.67
2018-01-17T21:23:45.971Z,1.83
2018-01-17T21:26:14.109Z,2.40
2018-01-17T21:28:43.669Z,1.97
2018-01-17T21:31:11.677Z,4.23
2018-01-17T21:33:41.068Z,4.30
2018-01-17T21:36:08.949Z,2.73
2018-01-17T21:38:36.816Z,2.93
2018-01-17T21:41:04.682Z,1.73
2018-01-17T21:43:38.181Z,2.10
2018-01-17T21:46:06.046Z,1.30
2018-01-17T21:48:33.911Z,1.07
2018-01-17T21:51:01.780Z,1.30
2018-01-17T21:53:29.860Z,1.30
2018-01-17T21:55:57.828Z,2.40
2018-01-17T21:58:25.691Z,1.83
2018-01-17T22:00:53.553Z,1.17
2018-01-17T22:03:21.417Z,1.67
2018-01-17T22:05:49.285Z,1.87
2018-01-17T22:08:17.162Z,1.60
2018-01-17T22:10:45.128Z,2.03
2018-01-17T22:13:13.090Z,1.60
2018-01-17T22:15:41.068Z,1.53
2018-01-17T22:18:09.029Z,1.50
2018-01-17T22:20:37.005Z,2.20
2018-01-17T22:23:05.078Z,1.50
2018-01-17T22:25:33.051Z,2.20
2018-01-17T22:28:01.724Z,1.00
2018-01-17T22:30:29.690Z,2.43
2018-01-17T22:32:57.609Z,1.30
2018-01-17T22:35:25.784Z,1.03
2018-01-17T22:37:54.470Z,1.10
2018-01-17T22:40:22.446Z,1.03
2018-01-17T22:42:50.318Z,2.43
2018-01-17T22:45:19.100Z,1.27
2018-01-17T22:47:47.067Z,2.80
2018-01-17T22:50:15.747Z,2.37
2018-01-17T22:52:43.622Z,0.80
2018-01-17T22:55:11.477Z,3.20
2018-01-17T22:57:39.352Z,0.80
2018-01-17T23:00:07.324Z,1.20
2018-01-17T23:02:35.283Z,0.90
2018-01-17T23:05:03.158Z,2.53
2018-01-17T23:07:31.843Z,0.90
2018-01-17T23:10:00.044Z,2.10
2018-01-17T23:12:27.983Z,1.77
2018-01-17T23:14:56.764Z,0.80
2018-01-17T23:17:25.554Z,1.30
2018-01-17T23:19:53.438Z,1.13
2018-01-17T23:22:22.018Z,1.43
2018-01-17T23:24:50.910Z,2.30
2018-01-17T23:27:18.653Z,1.50
2018-01-17T23:29:46.665Z,2.40
2018-01-17T23:32:14.632Z,3.10
2018-01-17T23:34:42.434Z,1.30
2018-01-17T23:37:10.208Z,2.77
2018-01-17T23:39:38.289Z,2.13
2018-01-17T23:42:06.688Z,1.00
2018-01-17T23:44:34.500Z,1.33
2018-01-17T23:47:03.024Z,2.57
2018-01-17T23:49:30.834Z,1.83
2018-01-17T23:51:58.777Z,3.37
2018-01-17T23:54:26.534Z,3.10
2018-01-17T23:56:54.280Z,1.73
2018-01-17T23:59:22.097Z,0.97
